sensor_id;sensor_type;location;lat;lon;timestamp;temperature;humidity
46231;DHT22;31949;51.404;-0.038;2022-07-23T00:00:19;18.30;99.90
46231;DHT22;31949;51.404;-0.038;2022-07-23T00:02:46;18.30;99.90
46231;DHT22;31949;51.404;-0.038;2022-07-23T00:05:13;18.30;99.90
46231;DHT22;31949;51.404;-0.038;2022-07-23T00:07:40;18.30;99.90
46231;DHT22;31949;51.404;-0.038;2022-07-23T00:10:08;18.30;99.90
46231;DHT22;31949;51.404;-0.038;2022-07-23T00:12:36;18.30;99.90
46231;DHT22;31949;51.404;-0.038;2022-07-23T00:15:18;18.30;99.90
46231;DHT22;31949;51.404;-0.038;2022-07-23T00:17:45;18.40;99.90
46231;DHT22;31949;51.404;-0.038;2022-07-23T00:20:13;18.40;99.90
46231;DHT22;31949;51.404;-0.038;2022-07-23T00:22:51;18.30;99.90
46231;DHT22;31949;51.404;-0.038;2022-07-23T00:25:20;18.30;99.90
46231;DHT22;31949;51.404;-0.038;2022-07-23T00:27:58;18.30;99.90
46231;DHT22;31949;51.404;-0.038;2022-07-23T00:30:26;18.30;99.90
46231;DHT22;31949;51.404;-0.038;2022-07-23T00:33:00;18.30;99.90
46231;DHT22;31949;51.404;-0.038;2022-07-23T00:35:29;18.30;99.90
46231;DHT22;31949;51.404;-0.038;2022-07-23T00:37:58;18.30;99.90
46231;DHT22;31949;51.404;-0.038;2022-07-23T00:40:26;18.30;99.90
46231;DHT22;31949;51.404;-0.038;2022-07-23T00:42:54;18.30;99.90
46231;DHT22;31949;51.404;-0.038;2022-07-23T00:45:21;18.30;99.90
46231;DHT22;31949;51.404;-0.038;2022-07-23T00:47:48;18.30;99.90
46231;DHT22;31949;51.404;-0.038;2022-07-23T00:50:16;18.30;99.90
46231;DHT22;31949;51.404;-0.038;2022-07-23T00:52:45;18.30;99.90
46231;DHT22;31949;51.404;-0.038;2022-07-23T00:55:19;18.30;99.90
46231;DHT22;31949;51.404;-0.038;2022-07-23T00:57:57;18.30;99.90
46231;DHT22;31949;51.404;-0.038;2022-07-23T01:00:25;18.20;99.90
46231;DHT22;31949;51.404;-0.038;2022-07-23T01:02:52;18.20;99.90
46231;DHT22;31949;51.404;-0.038;2022-07-23T01:05:20;18.10;99.90
46231;DHT22;31949;51.404;-0.038;2022-07-23T01:07:51;18.20;99.90
46231;DHT22;31949;51.404;-0.038;2022-07-23T01:10:23;18.20;99.90
46231;DHT22;31949;51.404;-0.038;2022-07-23T01:13:02;18.10;99.90
46231;DHT22;31949;51.404;-0.038;2022-07-23T01:15:31;18.10;99.90
46231;DHT22;31949;51.404;-0.038;2022-07-23T01:17:59;18.10;99.90
46231;DHT22;31949;51.404;-0.038;2022-07-23T01:20:27;18.10;99.90
46231;DHT22;31949;51.404;-0.038;2022-07-23T01:22:54;18.10;99.90
46231;DHT22;31949;51.404;-0.038;2022-07-23T01:25:22;18.00;99.90
46231;DHT22;31949;51.404;-0.038;2022-07-23T01:27:57;18.00;99.90
46231;DHT22;31949;51.404;-0.038;2022-07-23T01:30:24;18.00;99.90
46231;DHT22;31949;51.404;-0.038;2022-07-23T01:32:52;18.00;99.90
46231;DHT22;31949;51.404;-0.038;2022-07-23T01:35:29;17.90;99.90
46231;DHT22;31949;51.404;-0.038;2022-07-23T01:38:03;17.90;99.90
46231;DHT22;31949;51.404;-0.038;2022-07-23T01:40:31;17.90;99.90
46231;DHT22;31949;51.404;-0.038;2022-07-23T01:42:59;17.90;99.90
46231;DHT22;31949;51.404;-0.038;2022-07-23T01:45:31;17.90;99.90
46231;DHT22;31949;51.404;-0.038;2022-07-23T01:47:58;17.90;99.90
46231;DHT22;31949;51.404;-0.038;2022-07-23T01:50:25;17.90;99.90
46231;DHT22;31949;51.404;-0.038;2022-07-23T01:53:31;17.90;99.90
46231;DHT22;31949;51.404;-0.038;2022-07-23T01:56:16;17.90;99.90
46231;DHT22;31949;51.404;-0.038;2022-07-23T01:58:43;17.90;99.90
46231;DHT22;31949;51.404;-0.038;2022-07-23T02:01:11;17.90;99.90
46231;DHT22;31949;51.404;-0.038;2022-07-23T02:03:38;17.90;99.90
46231;DHT22;31949;51.404;-0.038;2022-07-23T02:06:05;17.90;99.90
46231;DHT22;31949;51.404;-0.038;2022-07-23T02:08:34;17.90;99.90
46231;DHT22;31949;51.404;-0.038;2022-07-23T02:11:13;17.90;99.90
46231;DHT22;31949;51.404;-0.038;2022-07-23T02:13:40;17.90;99.90
46231;DHT22;31949;51.404;-0.038;2022-07-23T02:16:08;17.90;99.90
46231;DHT22;31949;51.404;-0.038;2022-07-23T02:18:35;17.80;99.90
46231;DHT22;31949;51.404;-0.038;2022-07-23T02:21:02;17.80;99.90
46231;DHT22;31949;51.404;-0.038;2022-07-23T02:23:29;17.90;99.90
46231;DHT22;31949;51.404;-0.038;2022-07-23T02:25:56;17.80;99.90
46231;DHT22;31949;51.404;-0.038;2022-07-23T02:28:24;17.80;99.90
46231;DHT22;31949;51.404;-0.038;2022-07-23T02:30:51;17.80;99.90
46231;DHT22;31949;51.404;-0.038;2022-07-23T02:33:18;17.90;99.90
46231;DHT22;31949;51.404;-0.038;2022-07-23T02:35:46;17.80;99.90
46231;DHT22;31949;51.404;-0.038;2022-07-23T02:38:13;17.80;99.90
46231;DHT22;31949;51.404;-0.038;2022-07-23T02:40:40;17.80;99.90
46231;DHT22;31949;51.404;-0.038;2022-07-23T02:43:08;17.80;99.90
46231;DHT22;31949;51.404;-0.038;2022-07-23T02:45:35;17.90;99.90
46231;DHT22;31949;51.404;-0.038;2022-07-23T02:48:03;17.90;99.90
46231;DHT22;31949;51.404;-0.038;2022-07-23T02:50:30;17.90;99.90
46231;DHT22;31949;51.404;-0.038;2022-07-23T02:53:02;17.90;99.90
46231;DHT22;31949;51.404;-0.038;2022-07-23T02:55:29;17.90;99.90
46231;DHT22;31949;51.404;-0.038;2022-07-23T02:57:59;17.90;99.90
46231;DHT22;31949;51.404;-0.038;2022-07-23T03:00:27;17.90;99.90
46231;DHT22;31949;51.404;-0.038;2022-07-23T03:02:54;18.00;99.90
46231;DHT22;31949;51.404;-0.038;2022-07-23T03:05:21;18.00;99.90
46231;DHT22;31949;51.404;-0.038;2022-07-23T03:07:49;18.00;99.90
46231;DHT22;31949;51.404;-0.038;2022-07-23T03:10:16;18.00;99.90
46231;DHT22;31949;51.404;-0.038;2022-07-23T03:12:44;18.00;99.90
46231;DHT22;31949;51.404;-0.038;2022-07-23T03:15:11;18.00;99.90
46231;DHT22;31949;51.404;-0.038;2022-07-23T03:17:38;18.00;99.90
46231;DHT22;31949;51.404;-0.038;2022-07-23T03:20:06;17.90;99.90
46231;DHT22;31949;51.404;-0.038;2022-07-23T03:22:33;17.90;99.90
46231;DHT22;31949;51.404;-0.038;2022-07-23T03:25:03;17.90;99.90
46231;DHT22;31949;51.404;-0.038;2022-07-23T03:27:34;17.90;99.90
46231;DHT22;31949;51.404;-0.038;2022-07-23T03:30:01;17.80;99.90
46231;DHT22;31949;51.404;-0.038;2022-07-23T03:32:29;17.80;99.90
46231;DHT22;31949;51.404;-0.038;2022-07-23T03:34:56;17.80;99.90
46231;DHT22;31949;51.404;-0.038;2022-07-23T03:37:23;17.90;99.90
46231;DHT22;31949;51.404;-0.038;2022-07-23T03:39:51;17.90;99.90
46231;DHT22;31949;51.404;-0.038;2022-07-23T03:42:18;17.90;99.90
46231;DHT22;31949;51.404;-0.038;2022-07-23T03:44:46;17.80;99.90
46231;DHT22;31949;51.404;-0.038;2022-07-23T03:47:13;17.70;99.90
46231;DHT22;31949;51.404;-0.038;2022-07-23T03:49:41;17.70;99.90
46231;DHT22;31949;51.404;-0.038;2022-07-23T03:52:08;17.70;99.90
46231;DHT22;31949;51.404;-0.038;2022-07-23T03:54:35;17.80;99.90
46231;DHT22;31949;51.404;-0.038;2022-07-23T03:57:02;17.80;99.90
46231;DHT22;31949;51.404;-0.038;2022-07-23T03:59:32;17.70;99.90
46231;DHT22;31949;51.404;-0.038;2022-07-23T04:01:59;17.70;99.90
46231;DHT22;31949;51.404;-0.038;2022-07-23T04:04:26;17.70;99.90
46231;DHT22;31949;51.404;-0.038;2022-07-23T04:06:54;17.70;99.90
46231;DHT22;31949;51.404;-0.038;2022-07-23T04:09:22;17.70;99.90
46231;DHT22;31949;51.404;-0.038;2022-07-23T04:11:49;17.70;99.90
46231;DHT22;31949;51.404;-0.038;2022-07-23T04:14:16;17.80;99.90
46231;DHT22;31949;51.404;-0.038;2022-07-23T04:16:44;17.80;99.90
46231;DHT22;31949;51.404;-0.038;2022-07-23T04:19:11;17.80;99.90
46231;DHT22;31949;51.404;-0.038;2022-07-23T04:21:53;17.80;99.90
46231;DHT22;31949;51.404;-0.038;2022-07-23T04:24:21;17.80;99.90
46231;DHT22;31949;51.404;-0.038;2022-07-23T04:26:48;17.90;99.90
46231;DHT22;31949;51.404;-0.038;2022-07-23T04:29:15;17.80;99.90
46231;DHT22;31949;51.404;-0.038;2022-07-23T04:31:43;17.80;99.90
46231;DHT22;31949;51.404;-0.038;2022-07-23T04:34:10;17.80;99.90
46231;DHT22;31949;51.404;-0.038;2022-07-23T04:36:38;17.80;99.90
46231;DHT22;31949;51.404;-0.038;2022-07-23T04:39:05;17.80;99.90
46231;DHT22;31949;51.404;-0.038;2022-07-23T04:41:33;17.80;99.90
46231;DHT22;31949;51.404;-0.038;2022-07-23T04:44:01;17.70;99.90
46231;DHT22;31949;51.404;-0.038;2022-07-23T04:46:29;17.70;99.90
46231;DHT22;31949;51.404;-0.038;2022-07-23T04:48:56;17.60;99.90
46231;DHT22;31949;51.404;-0.038;2022-07-23T04:51:24;17.60;99.90
46231;DHT22;31949;51.404;-0.038;2022-07-23T04:53:51;17.60;99.90
46231;DHT22;31949;51.404;-0.038;2022-07-23T04:56:20;17.60;99.90
46231;DHT22;31949;51.404;-0.038;2022-07-23T04:58:47;17.60;99.90
46231;DHT22;31949;51.404;-0.038;2022-07-23T05:01:14;17.50;99.90
46231;DHT22;31949;51.404;-0.038;2022-07-23T05:03:42;17.50;99.90
46231;DHT22;31949;51.404;-0.038;2022-07-23T05:06:09;17.60;99.90
46231;DHT22;31949;51.404;-0.038;2022-07-23T05:08:36;17.60;99.90
46231;DHT22;31949;51.404;-0.038;2022-07-23T05:11:04;17.60;99.90
46231;DHT22;31949;51.404;-0.038;2022-07-23T05:13:31;17.60;99.90
46231;DHT22;31949;51.404;-0.038;2022-07-23T05:15:58;17.60;99.90
46231;DHT22;31949;51.404;-0.038;2022-07-23T05:18:26;17.60;99.90
46231;DHT22;31949;51.404;-0.038;2022-07-23T05:20:53;17.60;99.90
46231;DHT22;31949;51.404;-0.038;2022-07-23T05:23:22;17.70;99.90
46231;DHT22;31949;51.404;-0.038;2022-07-23T05:25:49;17.60;99.90
46231;DHT22;31949;51.404;-0.038;2022-07-23T05:28:17;17.60;99.90
46231;DHT22;31949;51.404;-0.038;2022-07-23T05:30:49;17.70;99.90
46231;DHT22;31949;51.404;-0.038;2022-07-23T05:33:21;17.70;99.90
46231;DHT22;31949;51.404;-0.038;2022-07-23T05:35:48;17.80;99.90
46231;DHT22;31949;51.404;-0.038;2022-07-23T05:38:27;17.80;99.90
46231;DHT22;31949;51.404;-0.038;2022-07-23T05:40:57;17.90;99.90
46231;DHT22;31949;51.404;-0.038;2022-07-23T05:43:25;18.00;99.90
46231;DHT22;31949;51.404;-0.038;2022-07-23T05:45:53;18.00;99.90
46231;DHT22;31949;51.404;-0.038;2022-07-23T05:48:21;18.10;99.90
46231;DHT22;31949;51.404;-0.038;2022-07-23T05:50:58;18.10;99.90
46231;DHT22;31949;51.404;-0.038;2022-07-23T05:53:30;18.00;99.90
46231;DHT22;31949;51.404;-0.038;2022-07-23T05:56:00;18.00;99.90
46231;DHT22;31949;51.404;-0.038;2022-07-23T05:58:29;18.10;99.90
46231;DHT22;31949;51.404;-0.038;2022-07-23T06:00:57;18.10;99.90
46231;DHT22;31949;51.404;-0.038;2022-07-23T06:03:24;18.10;99.90
46231;DHT22;31949;51.404;-0.038;2022-07-23T06:05:51;18.10;99.90
46231;DHT22;31949;51.404;-0.038;2022-07-23T06:08:19;18.10;99.90
46231;DHT22;31949;51.404;-0.038;2022-07-23T06:10:46;18.20;99.90
46231;DHT22;31949;51.404;-0.038;2022-07-23T06:13:13;18.30;99.90
46231;DHT22;31949;51.404;-0.038;2022-07-23T06:15:41;18.50;99.90
46231;DHT22;31949;51.404;-0.038;2022-07-23T06:18:08;18.70;99.90
46231;DHT22;31949;51.404;-0.038;2022-07-23T06:20:38;18.80;99.90
46231;DHT22;31949;51.404;-0.038;2022-07-23T06:23:05;19.00;99.90
46231;DHT22;31949;51.404;-0.038;2022-07-23T06:25:33;19.20;99.90
46231;DHT22;31949;51.404;-0.038;2022-07-23T06:28:00;19.50;99.90
46231;DHT22;31949;51.404;-0.038;2022-07-23T06:30:27;19.60;99.90
46231;DHT22;31949;51.404;-0.038;2022-07-23T06:32:54;19.60;99.90
46231;DHT22;31949;51.404;-0.038;2022-07-23T06:35:22;19.70;99.90
46231;DHT22;31949;51.404;-0.038;2022-07-23T06:37:49;19.80;99.90
46231;DHT22;31949;51.404;-0.038;2022-07-23T06:40:16;20.00;99.90
46231;DHT22;31949;51.404;-0.038;2022-07-23T06:42:44;20.20;99.90
46231;DHT22;31949;51.404;-0.038;2022-07-23T06:45:16;20.40;99.90
46231;DHT22;31949;51.404;-0.038;2022-07-23T06:47:44;20.50;99.90
46231;DHT22;31949;51.404;-0.038;2022-07-23T06:50:11;20.50;99.90
46231;DHT22;31949;51.404;-0.038;2022-07-23T06:52:38;20.60;99.90
46231;DHT22;31949;51.404;-0.038;2022-07-23T06:55:09;20.70;99.90
46231;DHT22;31949;51.404;-0.038;2022-07-23T06:57:37;20.90;99.90
46231;DHT22;31949;51.404;-0.038;2022-07-23T07:00:06;21.00;99.90
46231;DHT22;31949;51.404;-0.038;2022-07-23T07:02:34;21.00;99.90
46231;DHT22;31949;51.404;-0.038;2022-07-23T07:05:04;21.20;99.90
46231;DHT22;31949;51.404;-0.038;2022-07-23T07:07:34;21.10;99.90
46231;DHT22;31949;51.404;-0.038;2022-07-23T07:10:03;21.30;99.90
46231;DHT22;31949;51.404;-0.038;2022-07-23T07:12:31;21.50;99.90
46231;DHT22;31949;51.404;-0.038;2022-07-23T07:14:58;21.70;99.90
46231;DHT22;31949;51.404;-0.038;2022-07-23T07:17:26;21.40;99.90
46231;DHT22;31949;51.404;-0.038;2022-07-23T07:19:53;21.50;99.90
46231;DHT22;31949;51.404;-0.038;2022-07-23T07:22:20;21.50;99.90
46231;DHT22;31949;51.404;-0.038;2022-07-23T07:24:47;21.70;99.90
46231;DHT22;31949;51.404;-0.038;2022-07-23T07:27:14;21.80;99.90
46231;DHT22;31949;51.404;-0.038;2022-07-23T07:29:41;22.00;99.90
46231;DHT22;31949;51.404;-0.038;2022-07-23T07:32:09;22.10;99.90
46231;DHT22;31949;51.404;-0.038;2022-07-23T07:34:36;22.30;99.90
46231;DHT22;31949;51.404;-0.038;2022-07-23T07:37:03;22.40;99.80
46231;DHT22;31949;51.404;-0.038;2022-07-23T07:39:31;22.50;99.70
46231;DHT22;31949;51.404;-0.038;2022-07-23T07:41:58;22.50;99.30
46231;DHT22;31949;51.404;-0.038;2022-07-23T07:44:25;22.60;98.70
46231;DHT22;31949;51.404;-0.038;2022-07-23T07:46:53;22.60;97.50
46231;DHT22;31949;51.404;-0.038;2022-07-23T07:49:20;22.60;98.20
46231;DHT22;31949;51.404;-0.038;2022-07-23T07:51:54;22.80;98.50
46231;DHT22;31949;51.404;-0.038;2022-07-23T07:54:23;22.90;97.90
46231;DHT22;31949;51.404;-0.038;2022-07-23T07:56:50;22.80;97.00
46231;DHT22;31949;51.404;-0.038;2022-07-23T07:59:18;22.80;97.30
46231;DHT22;31949;51.404;-0.038;2022-07-23T08:01:51;23.00;97.00
46231;DHT22;31949;51.404;-0.038;2022-07-23T08:04:18;22.90;96.60
46231;DHT22;31949;51.404;-0.038;2022-07-23T08:06:46;22.80;96.40
46231;DHT22;31949;51.404;-0.038;2022-07-23T08:09:13;22.90;96.60
46231;DHT22;31949;51.404;-0.038;2022-07-23T08:11:40;22.70;96.50
46231;DHT22;31949;51.404;-0.038;2022-07-23T08:14:08;22.80;96.00
46231;DHT22;31949;51.404;-0.038;2022-07-23T08:16:36;22.80;96.00
46231;DHT22;31949;51.404;-0.038;2022-07-23T08:19:23;23.00;95.80
46231;DHT22;31949;51.404;-0.038;2022-07-23T08:21:51;23.10;95.30
46231;DHT22;31949;51.404;-0.038;2022-07-23T08:24:18;23.10;95.00
46231;DHT22;31949;51.404;-0.038;2022-07-23T08:26:46;23.10;95.30
46231;DHT22;31949;51.404;-0.038;2022-07-23T08:29:13;23.20;95.60
46231;DHT22;31949;51.404;-0.038;2022-07-23T08:31:40;23.20;94.80
46231;DHT22;31949;51.404;-0.038;2022-07-23T08:34:07;22.90;94.70
46231;DHT22;31949;51.404;-0.038;2022-07-23T08:36:35;23.00;94.30
46231;DHT22;31949;51.404;-0.038;2022-07-23T08:39:02;23.00;95.20
46231;DHT22;31949;51.404;-0.038;2022-07-23T08:41:30;23.10;95.00
46231;DHT22;31949;51.404;-0.038;2022-07-23T08:43:58;22.90;94.50
46231;DHT22;31949;51.404;-0.038;2022-07-23T08:46:28;23.00;95.00
46231;DHT22;31949;51.404;-0.038;2022-07-23T08:48:55;23.20;94.60
46231;DHT22;31949;51.404;-0.038;2022-07-23T08:51:26;23.20;94.20
46231;DHT22;31949;51.404;-0.038;2022-07-23T08:53:56;23.30;94.30
46231;DHT22;31949;51.404;-0.038;2022-07-23T08:56:24;23.20;94.20
46231;DHT22;31949;51.404;-0.038;2022-07-23T08:58:53;23.40;93.70
46231;DHT22;31949;51.404;-0.038;2022-07-23T09:01:21;23.20;94.10
46231;DHT22;31949;51.404;-0.038;2022-07-23T09:03:49;23.30;94.30
46231;DHT22;31949;51.404;-0.038;2022-07-23T09:06:16;23.40;93.80
46231;DHT22;31949;51.404;-0.038;2022-07-23T09:08:44;23.40;93.10
46231;DHT22;31949;51.404;-0.038;2022-07-23T09:11:16;23.50;93.20
46231;DHT22;31949;51.404;-0.038;2022-07-23T09:13:52;23.60;93.10
46231;DHT22;31949;51.404;-0.038;2022-07-23T09:16:26;23.60;92.60
46231;DHT22;31949;51.404;-0.038;2022-07-23T09:18:59;23.70;92.60
46231;DHT22;31949;51.404;-0.038;2022-07-23T09:21:34;23.70;92.50
46231;DHT22;31949;51.404;-0.038;2022-07-23T09:24:10;23.60;91.70
46231;DHT22;31949;51.404;-0.038;2022-07-23T09:26:43;23.60;91.00
46231;DHT22;31949;51.404;-0.038;2022-07-23T09:31:50;23.60;91.80
46231;DHT22;31949;51.404;-0.038;2022-07-23T09:34:26;23.70;91.90
46231;DHT22;31949;51.404;-0.038;2022-07-23T09:37:07;23.80;92.00
46231;DHT22;31949;51.404;-0.038;2022-07-23T09:39:35;24.00;92.10
46231;DHT22;31949;51.404;-0.038;2022-07-23T09:42:32;23.90;92.00
46231;DHT22;31949;51.404;-0.038;2022-07-23T09:45:00;23.90;90.70
46231;DHT22;31949;51.404;-0.038;2022-07-23T09:47:34;24.00;91.00
46231;DHT22;31949;51.404;-0.038;2022-07-23T09:50:02;24.20;90.30
46231;DHT22;31949;51.404;-0.038;2022-07-23T09:52:34;24.10;88.80
46231;DHT22;31949;51.404;-0.038;2022-07-23T09:55:05;24.10;90.00
46231;DHT22;31949;51.404;-0.038;2022-07-23T09:57:33;24.20;90.00
46231;DHT22;31949;51.404;-0.038;2022-07-23T10:00:03;24.30;90.00
46231;DHT22;31949;51.404;-0.038;2022-07-23T10:02:35;24.30;89.90
46231;DHT22;31949;51.404;-0.038;2022-07-23T10:05:21;24.50;88.90
46231;DHT22;31949;51.404;-0.038;2022-07-23T10:08:12;24.50;87.90
46231;DHT22;31949;51.404;-0.038;2022-07-23T10:10:59;24.50;88.40
46231;DHT22;31949;51.404;-0.038;2022-07-23T10:13:36;24.30;88.40
46231;DHT22;31949;51.404;-0.038;2022-07-23T10:16:35;24.40;88.80
46231;DHT22;31949;51.404;-0.038;2022-07-23T10:19:03;24.30;88.30
46231;DHT22;31949;51.404;-0.038;2022-07-23T10:21:49;24.40;87.20
46231;DHT22;31949;51.404;-0.038;2022-07-23T10:36:01;24.90;84.50
46231;DHT22;31949;51.404;-0.038;2022-07-23T10:38:30;25.00;89.30
46231;DHT22;31949;51.404;-0.038;2022-07-23T10:41:00;24.90;83.60
46231;DHT22;31949;51.404;-0.038;2022-07-23T10:43:29;25.10;84.50
46231;DHT22;31949;51.404;-0.038;2022-07-23T10:46:23;25.20;84.50
46231;DHT22;31949;51.404;-0.038;2022-07-23T10:49:27;25.20;84.50
46231;DHT22;31949;51.404;-0.038;2022-07-23T10:57:13;25.10;83.90
46231;DHT22;31949;51.404;-0.038;2022-07-23T11:02:37;25.10;82.70
46231;DHT22;31949;51.404;-0.038;2022-07-23T11:05:07;25.20;84.80
46231;DHT22;31949;51.404;-0.038;2022-07-23T11:07:36;25.30;84.50
46231;DHT22;31949;51.404;-0.038;2022-07-23T11:10:03;25.30;83.10
46231;DHT22;31949;51.404;-0.038;2022-07-23T11:12:32;25.40;81.50
46231;DHT22;31949;51.404;-0.038;2022-07-23T11:15:11;25.40;81.40
46231;DHT22;31949;51.404;-0.038;2022-07-23T11:17:58;25.50;83.10
46231;DHT22;31949;51.404;-0.038;2022-07-23T11:20:29;25.70;82.70
46231;DHT22;31949;51.404;-0.038;2022-07-23T11:22:58;25.90;80.90
46231;DHT22;31949;51.404;-0.038;2022-07-23T11:27:55;25.90;80.40
46231;DHT22;31949;51.404;-0.038;2022-07-23T11:30:39;26.20;80.40
46231;DHT22;31949;51.404;-0.038;2022-07-23T11:35:37;26.10;81.60
46231;DHT22;31949;51.404;-0.038;2022-07-23T11:38:16;26.20;80.40
46231;DHT22;31949;51.404;-0.038;2022-07-23T11:40:45;26.30;78.70
46231;DHT22;31949;51.404;-0.038;2022-07-23T11:43:13;26.30;80.10
46231;DHT22;31949;51.404;-0.038;2022-07-23T11:45:49;26.40;79.80
46231;DHT22;31949;51.404;-0.038;2022-07-23T11:48:22;26.70;79.90
46231;DHT22;31949;51.404;-0.038;2022-07-23T11:50:50;26.40;81.60
46231;DHT22;31949;51.404;-0.038;2022-07-23T11:53:26;26.40;79.70
46231;DHT22;31949;51.404;-0.038;2022-07-23T11:56:08;26.40;80.90
46231;DHT22;31949;51.404;-0.038;2022-07-23T11:58:38;26.60;78.40
46231;DHT22;31949;51.404;-0.038;2022-07-23T12:01:05;26.50;79.10
46231;DHT22;31949;51.404;-0.038;2022-07-23T12:03:59;26.60;79.30
46231;DHT22;31949;51.404;-0.038;2022-07-23T12:06:28;26.70;77.70
46231;DHT22;31949;51.404;-0.038;2022-07-23T12:08:55;26.70;77.20
46231;DHT22;31949;51.404;-0.038;2022-07-23T12:11:22;26.60;77.80
46231;DHT22;31949;51.404;-0.038;2022-07-23T12:13:57;26.50;76.40
46231;DHT22;31949;51.404;-0.038;2022-07-23T12:16:24;26.50;77.80
46231;DHT22;31949;51.404;-0.038;2022-07-23T12:18:52;26.60;77.70
46231;DHT22;31949;51.404;-0.038;2022-07-23T12:21:19;26.60;77.40
46231;DHT22;31949;51.404;-0.038;2022-07-23T12:23:48;26.60;77.10
46231;DHT22;31949;51.404;-0.038;2022-07-23T12:26:16;26.60;76.80
46231;DHT22;31949;51.404;-0.038;2022-07-23T12:28:52;26.70;76.40
46231;DHT22;31949;51.404;-0.038;2022-07-23T12:31:28;26.80;79.70
46231;DHT22;31949;51.404;-0.038;2022-07-23T12:33:56;26.90;75.10
46231;DHT22;31949;51.404;-0.038;2022-07-23T12:36:37;26.80;75.40
46231;DHT22;31949;51.404;-0.038;2022-07-23T12:39:06;26.90;75.90
46231;DHT22;31949;51.404;-0.038;2022-07-23T12:41:53;26.90;75.80
46231;DHT22;31949;51.404;-0.038;2022-07-23T12:44:20;26.80;74.50
46231;DHT22;31949;51.404;-0.038;2022-07-23T12:46:52;26.90;74.80
46231;DHT22;31949;51.404;-0.038;2022-07-23T12:49:26;26.70;77.50
46231;DHT22;31949;51.404;-0.038;2022-07-23T12:51:53;26.80;78.90
46231;DHT22;31949;51.404;-0.038;2022-07-23T12:54:27;27.00;76.30
46231;DHT22;31949;51.404;-0.038;2022-07-23T12:56:55;27.20;79.60
46231;DHT22;31949;51.404;-0.038;2022-07-23T12:59:22;27.20;74.20
46231;DHT22;31949;51.404;-0.038;2022-07-23T13:01:56;27.20;73.80
46231;DHT22;31949;51.404;-0.038;2022-07-23T13:04:26;27.10;73.90
46231;DHT22;31949;51.404;-0.038;2022-07-23T13:06:56;27.30;74.80
46231;DHT22;31949;51.404;-0.038;2022-07-23T13:09:32;27.20;74.90
46231;DHT22;31949;51.404;-0.038;2022-07-23T13:12:04;27.20;75.70
46231;DHT22;31949;51.404;-0.038;2022-07-23T13:14:32;27.30;73.80
46231;DHT22;31949;51.404;-0.038;2022-07-23T13:16:59;27.10;73.60
46231;DHT22;31949;51.404;-0.038;2022-07-23T13:19:26;27.20;76.00
46231;DHT22;31949;51.404;-0.038;2022-07-23T13:21:54;27.30;74.00
46231;DHT22;31949;51.404;-0.038;2022-07-23T13:24:22;27.30;72.80
46231;DHT22;31949;51.404;-0.038;2022-07-23T13:26:49;27.40;75.00
46231;DHT22;31949;51.404;-0.038;2022-07-23T13:29:18;27.40;74.20
46231;DHT22;31949;51.404;-0.038;2022-07-23T13:31:46;27.40;72.90
46231;DHT22;31949;51.404;-0.038;2022-07-23T13:34:15;27.30;74.10
46231;DHT22;31949;51.404;-0.038;2022-07-23T13:36:43;27.50;73.40
46231;DHT22;31949;51.404;-0.038;2022-07-23T13:39:11;27.50;73.70
46231;DHT22;31949;51.404;-0.038;2022-07-23T13:41:39;27.50;72.90
46231;DHT22;31949;51.404;-0.038;2022-07-23T13:44:16;27.40;73.30
46231;DHT22;31949;51.404;-0.038;2022-07-23T13:46:48;27.50;73.30
46231;DHT22;31949;51.404;-0.038;2022-07-23T13:49:16;27.40;73.50
46231;DHT22;31949;51.404;-0.038;2022-07-23T13:51:43;27.30;73.30
46231;DHT22;31949;51.404;-0.038;2022-07-23T13:54:11;27.50;74.20
46231;DHT22;31949;51.404;-0.038;2022-07-23T13:56:38;27.70;73.60
46231;DHT22;31949;51.404;-0.038;2022-07-23T13:59:05;27.80;73.70
46231;DHT22;31949;51.404;-0.038;2022-07-23T14:01:33;27.80;76.20
46231;DHT22;31949;51.404;-0.038;2022-07-23T14:04:21;27.70;75.00
46231;DHT22;31949;51.404;-0.038;2022-07-23T14:06:49;27.60;74.40
46231;DHT22;31949;51.404;-0.038;2022-07-23T14:09:21;27.50;75.30
46231;DHT22;31949;51.404;-0.038;2022-07-23T14:11:49;27.50;75.80
46231;DHT22;31949;51.404;-0.038;2022-07-23T14:14:18;27.60;76.60
46231;DHT22;31949;51.404;-0.038;2022-07-23T14:16:49;27.80;76.70
46231;DHT22;31949;51.404;-0.038;2022-07-23T14:19:26;27.90;77.10
46231;DHT22;31949;51.404;-0.038;2022-07-23T14:21:57;27.80;77.50
46231;DHT22;31949;51.404;-0.038;2022-07-23T14:24:24;27.50;77.60
46231;DHT22;31949;51.404;-0.038;2022-07-23T14:27:00;27.70;77.80
46231;DHT22;31949;51.404;-0.038;2022-07-23T14:29:29;27.50;79.10
46231;DHT22;31949;51.404;-0.038;2022-07-23T14:31:57;27.60;78.10
46231;DHT22;31949;51.404;-0.038;2022-07-23T14:34:26;27.70;78.40
46231;DHT22;31949;51.404;-0.038;2022-07-23T14:36:54;27.50;78.40
46231;DHT22;31949;51.404;-0.038;2022-07-23T14:39:22;27.50;78.80
46231;DHT22;31949;51.404;-0.038;2022-07-23T14:41:50;27.50;78.70
46231;DHT22;31949;51.404;-0.038;2022-07-23T14:44:18;27.50;79.20
46231;DHT22;31949;51.404;-0.038;2022-07-23T14:46:45;27.30;81.10
46231;DHT22;31949;51.404;-0.038;2022-07-23T14:49:12;27.30;80.60
46231;DHT22;31949;51.404;-0.038;2022-07-23T14:51:40;27.30;79.60
46231;DHT22;31949;51.404;-0.038;2022-07-23T14:54:09;27.40;79.90
46231;DHT22;31949;51.404;-0.038;2022-07-23T14:56:36;27.40;80.00
46231;DHT22;31949;51.404;-0.038;2022-07-23T14:59:07;27.40;80.30
46231;DHT22;31949;51.404;-0.038;2022-07-23T15:01:39;27.30;80.70
46231;DHT22;31949;51.404;-0.038;2022-07-23T15:04:10;27.10;80.90
46231;DHT22;31949;51.404;-0.038;2022-07-23T15:06:57;27.30;81.00
46231;DHT22;31949;51.404;-0.038;2022-07-23T15:09:25;27.30;81.20
46231;DHT22;31949;51.404;-0.038;2022-07-23T15:11:52;27.30;81.60
46231;DHT22;31949;51.404;-0.038;2022-07-23T15:14:19;27.40;81.30
46231;DHT22;31949;51.404;-0.038;2022-07-23T15:16:55;27.30;82.10
46231;DHT22;31949;51.404;-0.038;2022-07-23T15:19:28;27.30;82.30
46231;DHT22;31949;51.404;-0.038;2022-07-23T15:22:27;27.30;82.60
46231;DHT22;31949;51.404;-0.038;2022-07-23T16:04:55;27.00;85.20
46231;DHT22;31949;51.404;-0.038;2022-07-23T16:12:13;27.00;85.00
46231;DHT22;31949;51.404;-0.038;2022-07-23T16:34:53;27.20;84.10
46231;DHT22;31949;51.404;-0.038;2022-07-23T16:39:34;27.00;84.60
46231;DHT22;31949;51.404;-0.038;2022-07-23T17:30:30;26.20;86.70
46231;DHT22;31949;51.404;-0.038;2022-07-23T17:34:21;25.80;87.90
46231;DHT22;31949;51.404;-0.038;2022-07-23T17:38:07;25.60;87.90
46231;DHT22;31949;51.404;-0.038;2022-07-23T17:46:45;25.60;88.40
46231;DHT22;31949;51.404;-0.038;2022-07-23T17:58:16;25.20;90.10
46231;DHT22;31949;51.404;-0.038;2022-07-23T18:15:34;24.50;90.80
46231;DHT22;31949;51.404;-0.038;2022-07-23T18:22:02;24.50;91.40
46231;DHT22;31949;51.404;-0.038;2022-07-23T18:24:40;24.20;91.40
46231;DHT22;31949;51.404;-0.038;2022-07-23T18:27:34;24.10;91.90
46231;DHT22;31949;51.404;-0.038;2022-07-23T18:30:06;24.20;91.90
46231;DHT22;31949;51.404;-0.038;2022-07-23T18:32:37;24.00;91.90